Time;durP1;ratioP1;P1;durP2;ratioP2;P2;SDS_P1;SDS_P2;PMS_P1;PMS_P2;Temp;Humidity;BMP_temperature;BMP_pressure;BME280_temperature;BME280_humidity;BME280_pressure;Samples;Min_cycle;Max_cycle;Signal;HPM_P1;HPM_P2
2022/01/17 00:01:08;;;;;;;9.53;7.07;;;;;;;;;;4513664;28;20269;-60
2022/01/17 00:03:22;;;;;;;9.23;7.00;;;;;;;;;;4510371;28;20104;-60
2022/01/17 00:05:32;;;;;;;8.02;6.40;;;;;;;;;;4511139;28;20169;-60
2022/01/17 00:07:43;;;;;;;8.17;6.23;;;;;;;;;;4513172;28;20121;-60
2022/01/17 00:09:53;;;;;;;8.63;6.37;;;;;;;;;;4510782;28;20041;-60
2022/01/17 00:12:04;;;;;;;7.07;5.63;;;;;;;;;;4516670;28;20617;-60
2022/01/17 00:14:18;;;;;;;6.60;4.77;;;;;;;;;;4511418;28;20022;-60
2022/01/17 00:16:39;;;;;;;7.40;5.65;;;;;;;;;;4511596;28;20494;-60
2022/01/17 00:21:00;;;;;;;6.33;4.80;;;;;;;;;;4512687;28;20031;-60
2022/01/17 00:23:11;;;;;;;9.00;6.83;;;;;;;;;;4513949;28;20614;-60
2022/01/17 00:25:21;;;;;;;14.00;11.23;;;;;;;;;;4511455;28;20022;-60
2022/01/17 00:27:32;;;;;;;16.60;14.27;;;;;;;;;;4543251;28;20144;-60
2022/01/17 00:29:43;;;;;;;12.95;11.50;;;;;;;;;;4511014;28;20744;-60
2022/01/17 00:31:54;;;;;;;11.07;8.43;;;;;;;;;;4511686;28;20022;-60
2022/01/17 00:34:04;;;;;;;10.60;7.90;;;;;;;;;;4509323;28;20029;-60
2022/01/17 00:36:14;;;;;;;10.23;6.80;;;;;;;;;;4511070;28;20080;-60
2022/01/17 00:38:25;;;;;;;9.97;6.90;;;;;;;;;;4511683;28;26713;-60
2022/01/17 00:40:35;;;;;;;11.00;7.37;;;;;;;;;;4511313;28;20421;-60
2022/01/17 00:42:46;;;;;;;9.80;6.50;;;;;;;;;;4511520;28;20042;-60
2022/01/17 00:44:56;;;;;;;9.57;7.03;;;;;;;;;;4508916;28;24080;-60
2022/01/17 00:47:07;;;;;;;11.17;7.20;;;;;;;;;;4511422;28;21307;-60
2022/01/17 00:49:19;;;;;;;10.53;7.47;;;;;;;;;;4518194;28;20034;-59
2022/01/17 00:51:30;;;;;;;9.52;6.97;;;;;;;;;;4511674;28;20038;-60
2022/01/17 00:53:41;;;;;;;11.88;7.63;;;;;;;;;;4512674;28;20069;-60
2022/01/17 00:55:51;;;;;;;10.60;7.22;;;;;;;;;;4511284;28;20034;-60
2022/01/17 00:58:03;;;;;;;10.17;7.43;;;;;;;;;;4510623;28;20034;-60
2022/01/17 01:00:14;;;;;;;10.23;7.38;;;;;;;;;;4510603;28;20026;-60
2022/01/17 01:02:25;;;;;;;10.27;6.90;;;;;;;;;;4510985;28;20054;-60
2022/01/17 01:04:35;;;;;;;10.53;7.07;;;;;;;;;;4517648;28;20030;-60
2022/01/17 01:06:45;;;;;;;9.53;6.67;;;;;;;;;;4510313;28;21018;-60
2022/01/17 01:08:57;;;;;;;10.10;6.83;;;;;;;;;;4512227;28;20772;-60
2022/01/17 01:11:07;;;;;;;10.63;6.78;;;;;;;;;;4510907;28;20029;-60
2022/01/17 01:13:21;;;;;;;9.47;6.43;;;;;;;;;;4512693;28;20033;-60
2022/01/17 01:17:58;;;;;;;10.57;6.45;;;;;;;;;;4511114;28;20033;-61
2022/01/17 01:28:13;;;;;;;8.57;5.53;;;;;;;;;;4504571;28;20045;-60
2022/01/17 01:30:19;;;;;;;8.93;5.68;;;;;;;;;;4536615;28;20048;-60
2022/01/17 01:32:38;;;;;;;9.02;5.50;;;;;;;;;;4511785;28;20025;-60
2022/01/17 01:34:52;;;;;;;9.20;5.80;;;;;;;;;;4511780;28;20109;-60
2022/01/17 01:37:03;;;;;;;8.65;5.15;;;;;;;;;;4509618;28;20025;-60
2022/01/17 01:39:21;;;;;;;;;;;;;;;;;;4512442;28;20105;-59
2022/01/17 01:41:40;;;;;;;8.90;5.35;;;;;;;;;;4511720;28;20016;-60
2022/01/17 01:43:51;;;;;;;9.82;5.70;;;;;;;;;;4525799;28;21526;-59
2022/01/17 01:46:02;;;;;;;9.60;5.43;;;;;;;;;;4508229;28;20348;-60
2022/01/17 01:48:12;;;;;;;9.48;5.50;;;;;;;;;;4541860;28;20044;-59
2022/01/17 01:50:23;;;;;;;9.10;5.77;;;;;;;;;;4508727;28;24298;-60
2022/01/17 01:52:34;;;;;;;9.60;5.37;;;;;;;;;;4509513;28;20041;-60
2022/01/17 01:54:44;;;;;;;7.50;4.83;;;;;;;;;;4508035;28;20038;-59
2022/01/17 01:56:55;;;;;;;7.60;4.90;;;;;;;;;;4511674;28;20076;-60
2022/01/17 01:59:06;;;;;;;8.37;4.80;;;;;;;;;;4512450;28;20034;-60
2022/01/17 02:01:16;;;;;;;7.68;4.72;;;;;;;;;;4541351;28;20091;-60
2022/01/17 02:03:27;;;;;;;7.80;4.73;;;;;;;;;;4507358;28;44743;-59
2022/01/17 02:05:37;;;;;;;6.93;4.60;;;;;;;;;;4511722;28;20040;-59
2022/01/17 02:07:47;;;;;;;7.87;4.63;;;;;;;;;;4510007;28;20022;-60
2022/01/17 02:09:58;;;;;;;8.23;4.97;;;;;;;;;;4511076;28;20018;-59
2022/01/17 02:12:09;;;;;;;9.07;5.27;;;;;;;;;;4509300;28;20815;-60
2022/01/17 02:14:19;;;;;;;8.87;5.63;;;;;;;;;;4512302;28;20034;-59
2022/01/17 02:16:32;;;;;;;9.43;5.83;;;;;;;;;;4509120;28;20069;-59
2022/01/17 02:18:43;;;;;;;9.07;6.20;;;;;;;;;;4509126;28;20041;-59
2022/01/17 02:21:12;;;;;;;9.90;6.07;;;;;;;;;;4510084;28;20030;-60
2022/01/17 02:23:23;;;;;;;9.77;6.25;;;;;;;;;;4509212;28;20133;-60
2022/01/17 02:25:34;;;;;;;8.47;5.50;;;;;;;;;;4510409;28;20104;-59
2022/01/17 02:27:45;;;;;;;10.57;6.20;;;;;;;;;;4509959;28;20038;-59
2022/01/17 02:29:55;;;;;;;9.77;6.10;;;;;;;;;;4510629;28;20719;-60
2022/01/17 02:32:06;;;;;;;11.23;6.67;;;;;;;;;;4509738;28;20030;-60
2022/01/17 02:34:17;;;;;;;10.33;6.17;;;;;;;;;;4510279;28;20045;-59
2022/01/17 02:36:27;;;;;;;10.57;6.37;;;;;;;;;;4510051;28;20022;-59
2022/01/17 02:38:39;;;;;;;10.23;6.60;;;;;;;;;;4509506;28;21673;-60
2022/01/17 02:40:50;;;;;;;;;;;;;;;;;;4542168;28;20508;-60
2022/01/17 02:43:05;;;;;;;10.27;6.50;;;;;;;;;;4508896;28;19928;-59
2022/01/17 02:46:24;;;;;;;9.85;6.22;;;;;;;;;;4511547;28;20033;-60
2022/01/17 02:48:06;;;;;;;10.32;6.63;;;;;;;;;;4508089;28;20040;-60
2022/01/17 02:50:17;;;;;;;9.73;6.55;;;;;;;;;;4511375;28;20022;-60
2022/01/17 02:52:27;;;;;;;10.97;7.00;;;;;;;;;;4523299;28;20567;-60
2022/01/17 02:54:37;;;;;;;10.80;6.73;;;;;;;;;;4509642;28;20037;-60
2022/01/17 02:56:48;;;;;;;10.70;6.63;;;;;;;;;;4508214;28;20124;-60
2022/01/17 02:58:59;;;;;;;10.93;7.27;;;;;;;;;;4509546;28;20037;-59
2022/01/17 03:01:15;;;;;;;10.90;7.37;;;;;;;;;;4509157;28;31609;-59
2022/01/17 03:03:27;;;;;;;10.85;7.15;;;;;;;;;;4509267;28;20046;-60
2022/01/17 03:05:39;;;;;;;10.50;6.95;;;;;;;;;;4509139;28;20041;-59
2022/01/17 03:07:50;;;;;;;9.85;6.30;;;;;;;;;;4507521;28;20713;-60
2022/01/17 03:10:05;;;;;;;11.07;6.95;;;;;;;;;;4508903;28;20025;-60
2022/01/17 03:12:16;;;;;;;10.27;6.60;;;;;;;;;;4510034;28;20069;-59
2022/01/17 03:14:26;;;;;;;10.20;6.53;;;;;;;;;;4507924;28;20179;-59
2022/01/17 03:16:45;;;;;;;10.10;6.53;;;;;;;;;;4508125;28;20765;-59
2022/01/17 03:18:56;;;;;;;10.20;6.55;;;;;;;;;;4508879;28;20557;-59
2022/01/17 03:21:09;;;;;;;11.13;6.97;;;;;;;;;;4508130;28;20189;-59
2022/01/17 03:23:20;;;;;;;10.07;6.40;;;;;;;;;;4509334;28;21476;-59
2022/01/17 03:25:30;;;;;;;8.60;5.60;;;;;;;;;;4512209;28;20026;-59
2022/01/17 03:27:41;;;;;;;9.83;5.97;;;;;;;;;;4511913;28;20042;-59
2022/01/17 03:29:51;;;;;;;9.07;5.10;;;;;;;;;;4511685;28;20068;-59
2022/01/17 03:32:02;;;;;;;8.03;4.97;;;;;;;;;;4511347;28;20487;-59
2022/01/17 03:34:12;;;;;;;6.00;3.70;;;;;;;;;;4512066;28;20026;-59
2022/01/17 03:36:23;;;;;;;6.67;3.77;;;;;;;;;;4512279;28;20380;-60
2022/01/17 03:38:34;;;;;;;4.30;2.70;;;;;;;;;;4511307;28;20449;-59
2022/01/17 03:40:50;;;;;;;5.85;2.85;;;;;;;;;;4511031;28;20072;-59
2022/01/17 03:43:01;;;;;;;4.25;2.20;;;;;;;;;;4510964;28;20049;-59
2022/01/17 03:45:11;;;;;;;4.23;2.10;;;;;;;;;;4511340;28;29449;-59
2022/01/17 03:47:22;;;;;;;4.17;2.00;;;;;;;;;;4512325;28;20044;-60
2022/01/17 03:49:32;;;;;;;4.57;1.93;;;;;;;;;;4518755;28;20037;-60
2022/01/17 03:51:42;;;;;;;3.27;1.67;;;;;;;;;;4512511;28;20057;-59
2022/01/17 03:53:53;;;;;;;4.40;1.90;;;;;;;;;;4510789;28;20026;-59
2022/01/17 03:56:04;;;;;;;5.07;2.10;;;;;;;;;;4513821;28;20386;-60
2022/01/17 03:58:14;;;;;;;3.20;1.63;;;;;;;;;;4514262;28;20044;-60
2022/01/17 04:00:27;;;;;;;4.17;1.90;;;;;;;;;;4510806;28;24252;-60
2022/01/17 04:02:38;;;;;;;5.60;2.33;;;;;;;;;;4509743;28;20049;-59
2022/01/17 04:04:48;;;;;;;4.33;2.00;;;;;;;;;;4530635;28;20040;-60
2022/01/17 04:06:59;;;;;;;5.00;2.23;;;;;;;;;;4509119;28;20101;-59
2022/01/17 04:09:10;;;;;;;5.33;2.40;;;;;;;;;;4511621;28;20080;-60
2022/01/17 04:11:20;;;;;;;6.90;2.80;;;;;;;;;;4506406;28;20194;-60
2022/01/17 04:13:32;;;;;;;5.10;2.60;;;;;;;;;;4509589;28;20034;-60
2022/01/17 04:15:43;;;;;;;6.50;2.42;;;;;;;;;;4512006;28;20824;-59
2022/01/17 04:17:53;;;;;;;5.27;2.60;;;;;;;;;;4511285;28;20021;-60
2022/01/17 04:20:08;;;;;;;5.70;2.70;;;;;;;;;;4542682;28;20095;-59
2022/01/17 04:22:18;;;;;;;5.85;3.05;;;;;;;;;;4511685;28;20168;-60
2022/01/17 04:24:28;;;;;;;6.13;2.93;;;;;;;;;;4511292;28;20030;-60
2022/01/17 04:26:39;;;;;;;6.33;3.00;;;;;;;;;;4542785;28;20031;-60
2022/01/17 04:28:50;;;;;;;6.10;3.43;;;;;;;;;;4510321;28;21278;-60
2022/01/17 04:31:00;;;;;;;5.83;2.87;;;;;;;;;;4544377;28;20028;-60
2022/01/17 04:33:11;;;;;;;7.00;3.57;;;;;;;;;;4510819;28;20033;-59
2022/01/17 04:35:22;;;;;;;5.33;2.83;;;;;;;;;;4511465;28;20037;-60
2022/01/17 04:37:33;;;;;;;;;;;;;;;;;;4511586;28;20034;-60
2022/01/17 04:39:43;;;;;;;7.90;3.40;;;;;;;;;;4510571;28;22258;-60
2022/01/17 04:41:56;;;;;;;6.93;3.07;;;;;;;;;;4508464;28;22034;-59
2022/01/17 04:46:36;;;;;;;6.03;3.05;;;;;;;;;;4513103;28;20068;-59
2022/01/17 04:48:46;;;;;;;6.17;3.10;;;;;;;;;;4512823;28;28673;-59
2022/01/17 04:50:58;;;;;;;5.73;3.17;;;;;;;;;;4510149;28;20589;-60
2022/01/17 04:53:11;;;;;;;6.78;3.53;;;;;;;;;;4510351;28;20540;-60
2022/01/17 04:55:23;;;;;;;6.80;3.58;;;;;;;;;;4542361;28;20043;-60
2022/01/17 04:57:33;;;;;;;6.28;3.60;;;;;;;;;;4509981;28;21221;-59
2022/01/17 04:59:44;;;;;;;5.73;3.80;;;;;;;;;;4542035;28;20132;-59
2022/01/17 05:01:54;;;;;;;6.30;3.97;;;;;;;;;;4510167;28;20433;-60
2022/01/17 05:04:05;;;;;;;6.97;4.27;;;;;;;;;;4508370;28;29239;-60
2022/01/17 05:06:15;;;;;;;7.87;4.63;;;;;;;;;;4510666;28;20038;-59
2022/01/17 05:08:25;;;;;;;8.57;4.83;;;;;;;;;;4510884;28;20542;-60
2022/01/17 05:10:36;;;;;;;8.17;4.40;;;;;;;;;;4509113;28;20129;-60
2022/01/17 05:12:46;;;;;;;7.70;4.63;;;;;;;;;;4508975;28;20034;-59
2022/01/17 05:14:58;;;;;;;8.67;4.97;;;;;;;;;;4508612;28;20517;-60
2022/01/17 05:19:49;;;;;;;8.70;4.90;;;;;;;;;;4498053;28;21042;-59
2022/01/17 05:22:00;;;;;;;8.40;5.10;;;;;;;;;;4510920;28;20026;-60
2022/01/17 05:24:10;;;;;;;8.37;5.00;;;;;;;;;;4509783;28;20495;-60
2022/01/17 05:26:21;;;;;;;9.17;4.90;;;;;;;;;;4509788;28;20100;-60
2022/01/17 05:28:31;;;;;;;8.23;5.03;;;;;;;;;;4510083;28;25854;-59
2022/01/17 05:30:42;;;;;;;7.43;4.70;;;;;;;;;;4510898;28;20061;-60
2022/01/17 05:32:53;;;;;;;8.37;4.53;;;;;;;;;;4507860;28;26319;-59
2022/01/17 05:35:04;;;;;;;;;;;;;;;;;;4541130;28;20107;-59
2022/01/17 05:37:14;;;;;;;8.88;4.80;;;;;;;;;;4518148;28;19948;-59
2022/01/17 05:39:25;;;;;;;7.73;4.60;;;;;;;;;;4515152;28;20034;-60
2022/01/17 05:41:35;;;;;;;8.23;4.43;;;;;;;;;;4510023;28;23383;-60
2022/01/17 05:43:46;;;;;;;8.80;5.00;;;;;;;;;;4510418;28;20046;-59
2022/01/17 05:45:56;;;;;;;8.77;5.23;;;;;;;;;;4511249;28;20438;-60
2022/01/17 05:48:07;;;;;;;10.07;4.60;;;;;;;;;;4508393;28;20111;-59
2022/01/17 05:50:17;;;;;;;8.00;4.23;;;;;;;;;;4543519;28;20036;-59
2022/01/17 05:52:29;;;;;;;8.30;4.30;;;;;;;;;;4508724;28;20042;-60
2022/01/17 05:54:39;;;;;;;;;;;;;;;;;;4509308;28;20029;-59
2022/01/17 05:56:50;;;;;;;9.32;4.40;;;;;;;;;;4510959;28;19917;-59
2022/01/17 05:59:00;;;;;;;7.87;4.43;;;;;;;;;;4509706;28;20037;-59
2022/01/17 06:01:13;;;;;;;7.77;4.10;;;;;;;;;;4511009;28;20156;-60
2022/01/17 06:03:25;;;;;;;8.80;4.30;;;;;;;;;;4507335;28;20046;-59
2022/01/17 06:05:36;;;;;;;8.25;3.95;;;;;;;;;;4508658;28;20196;-60
2022/01/17 06:07:46;;;;;;;6.33;3.47;;;;;;;;;;4509375;28;20436;-60
2022/01/17 06:09:57;;;;;;;8.90;4.00;;;;;;;;;;4540691;28;20699;-60
2022/01/17 06:12:08;;;;;;;7.37;3.63;;;;;;;;;;4543196;28;20972;-59
2022/01/17 06:14:19;;;;;;;8.40;4.07;;;;;;;;;;4511262;28;20592;-60
2022/01/17 06:16:30;;;;;;;6.75;3.85;;;;;;;;;;4506670;28;20037;-59
2022/01/17 06:18:40;;;;;;;6.68;3.58;;;;;;;;;;4508027;28;20033;-59
2022/01/17 06:20:51;;;;;;;6.60;3.53;;;;;;;;;;4510973;28;20041;-60
2022/01/17 06:23:01;;;;;;;7.63;3.60;;;;;;;;;;4508745;28;20046;-60
2022/01/17 06:25:12;;;;;;;5.43;2.90;;;;;;;;;;4508553;28;20069;-60
2022/01/17 06:27:22;;;;;;;5.43;3.10;;;;;;;;;;4542005;28;20777;-60
2022/01/17 06:29:32;;;;;;;6.97;3.50;;;;;;;;;;4526087;28;20427;-60
2022/01/17 06:31:44;;;;;;;6.50;2.80;;;;;;;;;;4511123;28;20033;-60
2022/01/17 06:33:54;;;;;;;5.82;2.90;;;;;;;;;;4541752;28;21345;-60
2022/01/17 06:36:05;;;;;;;5.33;2.50;;;;;;;;;;4511278;28;20061;-60
2022/01/17 06:38:15;;;;;;;5.40;2.40;;;;;;;;;;4508941;28;20134;-59
2022/01/17 06:40:26;;;;;;;6.23;2.90;;;;;;;;;;4514043;28;20041;-60
2022/01/17 06:42:36;;;;;;;4.23;2.40;;;;;;;;;;4508982;28;20075;-59
2022/01/17 06:44:47;;;;;;;4.63;2.13;;;;;;;;;;4541329;28;20036;-60
2022/01/17 06:46:58;;;;;;;4.43;2.27;;;;;;;;;;4509079;28;20033;-60
2022/01/17 06:49:09;;;;;;;6.47;2.50;;;;;;;;;;4511061;28;20025;-60
2022/01/17 06:51:19;;;;;;;4.28;2.00;;;;;;;;;;4510642;28;20442;-60
2022/01/17 06:53:30;;;;;;;2.90;1.70;;;;;;;;;;4510430;28;20264;-60
2022/01/17 06:55:40;;;;;;;4.83;2.17;;;;;;;;;;4509290;28;20153;-59
2022/01/17 06:57:51;;;;;;;4.87;2.20;;;;;;;;;;4509001;28;20410;-60
2022/01/17 07:00:05;;;;;;;4.30;2.10;;;;;;;;;;4507921;28;20614;-59
2022/01/17 07:02:16;;;;;;;5.70;2.42;;;;;;;;;;4505368;28;20065;-60
2022/01/17 07:04:26;;;;;;;5.03;2.33;;;;;;;;;;4539948;28;20044;-60
2022/01/17 07:06:38;;;;;;;6.13;2.30;;;;;;;;;;4516996;28;21375;-60
2022/01/17 07:08:49;;;;;;;6.80;2.63;;;;;;;;;;4507592;28;20030;-59
2022/01/17 07:10:59;;;;;;;5.43;2.37;;;;;;;;;;4508209;28;20026;-60
2022/01/17 07:13:10;;;;;;;5.73;2.33;;;;;;;;;;4508100;28;20835;-59
2022/01/17 07:15:20;;;;;;;5.57;2.50;;;;;;;;;;4509444;28;20041;-60
2022/01/17 07:17:31;;;;;;;5.30;2.40;;;;;;;;;;4517139;28;20060;-60
2022/01/17 07:19:41;;;;;;;6.27;2.10;;;;;;;;;;4541377;28;20522;-60
2022/01/17 07:21:52;;;;;;;4.93;2.30;;;;;;;;;;4508326;28;20045;-60
2022/01/17 07:24:03;;;;;;;4.63;2.27;;;;;;;;;;4516056;28;20053;-60
2022/01/17 07:26:13;;;;;;;4.97;2.25;;;;;;;;;;4507758;28;20030;-60
2022/01/17 07:28:24;;;;;;;3.23;1.90;;;;;;;;;;4508653;28;20458;-59
2022/01/17 07:30:35;;;;;;;6.57;3.20;;;;;;;;;;4507767;28;20033;-58
2022/01/17 07:32:46;;;;;;;4.03;1.90;;;;;;;;;;4541092;28;20150;-60
2022/01/17 07:34:56;;;;;;;4.17;2.10;;;;;;;;;;4509543;28;20189;-60
2022/01/17 07:37:07;;;;;;;3.37;1.90;;;;;;;;;;4508240;28;20053;-60
2022/01/17 07:39:17;;;;;;;4.50;1.90;;;;;;;;;;4508966;28;31187;-60
2022/01/17 07:41:27;;;;;;;5.70;2.10;;;;;;;;;;4508709;28;20026;-60
2022/01/17 07:43:38;;;;;;;4.97;1.90;;;;;;;;;;4507983;28;20506;-60
2022/01/17 07:46:06;;;;;;;5.43;2.00;;;;;;;;;;4528269;28;20041;-60
2022/01/17 07:48:45;;;;;;;5.07;1.70;;;;;;;;;;4508031;28;20026;-59
2022/01/17 07:50:53;;;;;;;4.90;1.67;;;;;;;;;;4507695;28;20307;-59
2022/01/17 07:53:03;;;;;;;3.70;1.73;;;;;;;;;;4507817;28;21059;-60
2022/01/17 07:55:15;;;;;;;4.30;1.70;;;;;;;;;;4507193;28;20040;-59
2022/01/17 07:57:25;;;;;;;4.07;1.55;;;;;;;;;;4508694;28;20038;-59
2022/01/17 07:59:36;;;;;;;4.90;1.60;;;;;;;;;;4507543;28;24154;-60
2022/01/17 08:01:46;;;;;;;3.20;1.40;;;;;;;;;;4508049;28;20664;-60
2022/01/17 08:03:57;;;;;;;2.40;1.27;;;;;;;;;;4507549;28;20227;-60
2022/01/17 08:06:07;;;;;;;5.50;1.63;;;;;;;;;;4507766;28;20062;-60
2022/01/17 08:08:18;;;;;;;3.60;1.38;;;;;;;;;;4507207;28;20034;-60
2022/01/17 08:10:30;;;;;;;4.87;1.60;;;;;;;;;;4509309;28;20030;-60
2022/01/17 08:12:42;;;;;;;3.28;1.30;;;;;;;;;;4512396;28;20085;-59
2022/01/17 08:14:57;;;;;;;5.13;2.33;;;;;;;;;;4510885;28;21010;-60
2022/01/17 08:17:08;;;;;;;7.60;4.32;;;;;;;;;;4503880;28;20045;-60
2022/01/17 08:19:19;;;;;;;4.33;1.80;;;;;;;;;;4510893;28;20038;-60
2022/01/17 08:21:29;;;;;;;4.28;1.73;;;;;;;;;;4509049;28;20034;-60
2022/01/17 08:23:39;;;;;;;3.87;1.43;;;;;;;;;;4509880;28;20931;-60
2022/01/17 08:25:50;;;;;;;3.03;1.40;;;;;;;;;;4512349;28;20041;-60
2022/01/17 08:28:01;;;;;;;5.67;1.93;;;;;;;;;;4509799;28;20527;-60
2022/01/17 08:30:11;;;;;;;5.47;1.60;;;;;;;;;;4510444;28;20033;-60
2022/01/17 08:32:22;;;;;;;3.07;1.10;;;;;;;;;;4510152;28;20549;-60
2022/01/17 08:34:33;;;;;;;3.47;1.50;;;;;;;;;;4508140;28;20528;-60
2022/01/17 08:36:45;;;;;;;4.82;1.60;;;;;;;;;;4541450;28;20037;-60
2022/01/17 08:38:55;;;;;;;2.97;1.27;;;;;;;;;;4542789;28;20174;-60
2022/01/17 08:41:06;;;;;;;4.67;1.40;;;;;;;;;;4542722;28;20028;-60
2022/01/17 08:43:16;;;;;;;3.97;1.60;;;;;;;;;;4511645;28;20042;-60
2022/01/17 08:45:27;;;;;;;2.57;1.10;;;;;;;;;;4511419;28;20064;-61
2022/01/17 08:47:38;;;;;;;5.05;1.27;;;;;;;;;;4510969;28;20116;-60
2022/01/17 08:49:49;;;;;;;5.77;1.50;;;;;;;;;;4509848;28;20526;-59
2022/01/17 08:51:59;;;;;;;3.10;1.30;;;;;;;;;;4509836;28;20449;-60
2022/01/17 08:54:10;;;;;;;2.87;1.27;;;;;;;;;;4510635;28;20036;-59
2022/01/17 08:56:20;;;;;;;5.60;1.63;;;;;;;;;;4510619;28;20439;-60
2022/01/17 08:58:31;;;;;;;2.93;1.40;;;;;;;;;;4509627;28;20120;-60
2022/01/17 09:00:42;;;;;;;2.80;1.20;;;;;;;;;;4534835;28;20163;-60
2022/01/17 09:02:52;;;;;;;4.93;1.42;;;;;;;;;;4507613;28;20049;-60
2022/01/17 09:05:03;;;;;;;4.30;1.60;;;;;;;;;;4542149;28;20389;-60
2022/01/17 09:07:15;;;;;;;4.37;1.60;;;;;;;;;;4510243;28;20035;-60
2022/01/17 09:09:26;;;;;;;2.47;1.20;;;;;;;;;;4541189;28;20041;-60
2022/01/17 09:11:36;;;;;;;3.10;1.30;;;;;;;;;;4541193;28;20017;-60
2022/01/17 09:13:50;;;;;;;2.57;1.60;;;;;;;;;;4542574;28;20035;-60
2022/01/17 09:16:01;;;;;;;3.15;1.40;;;;;;;;;;4540940;28;20136;-60
2022/01/17 09:18:14;;;;;;;3.20;1.53;;;;;;;;;;4518407;28;20041;-60
2022/01/17 09:20:24;;;;;;;4.70;1.92;;;;;;;;;;4540399;28;20034;-60
2022/01/17 09:22:35;;;;;;;3.30;1.63;;;;;;;;;;4515356;28;20025;-60
2022/01/17 09:24:45;;;;;;;4.60;1.67;;;;;;;;;;4509279;28;20038;-60
2022/01/17 09:26:55;;;;;;;3.93;1.70;;;;;;;;;;4542072;28;20140;-60
2022/01/17 09:29:06;;;;;;;3.60;1.50;;;;;;;;;;4517226;28;20025;-60
2022/01/17 09:31:17;;;;;;;3.37;1.50;;;;;;;;;;4507639;28;20126;-60
2022/01/17 09:33:28;;;;;;;4.20;1.70;;;;;;;;;;4507762;28;20042;-60
2022/01/17 09:35:38;;;;;;;4.68;1.73;;;;;;;;;;4540515;28;20748;-60
2022/01/17 09:37:50;;;;;;;3.57;1.60;;;;;;;;;;4508183;28;20617;-61
2022/01/17 09:40:01;;;;;;;5.38;1.90;;;;;;;;;;4542508;28;20721;-60
2022/01/17 09:42:12;;;;;;;4.23;1.67;;;;;;;;;;4494014;28;20367;-60
2022/01/17 09:44:23;;;;;;;4.50;1.95;;;;;;;;;;4509333;28;20273;-61
2022/01/17 09:46:39;;;;;;;4.93;1.93;;;;;;;;;;4525330;28;20294;-60
2022/01/17 09:48:50;;;;;;;3.67;1.70;;;;;;;;;;4509912;28;20029;-59
2022/01/17 09:51:15;;;;;;;3.55;1.85;;;;;;;;;;4509337;28;20106;-60
2022/01/17 09:53:28;;;;;;;5.28;1.98;;;;;;;;;;4507722;28;20037;-60
2022/01/17 09:55:38;;;;;;;3.38;1.85;;;;;;;;;;4510072;28;20038;-60
2022/01/17 09:58:00;;;;;;;3.53;1.93;;;;;;;;;;4538956;28;20444;-60
2022/01/17 10:00:11;;;;;;;;;;;;;;;;;;4541697;28;20508;-60
2022/01/17 10:02:24;;;;;;;4.13;1.80;;;;;;;;;;4514724;28;20238;-60
2022/01/17 10:04:36;;;;;;;5.57;2.47;;;;;;;;;;4508877;28;20072;-60
2022/01/17 10:06:57;;;;;;;4.68;1.85;;;;;;;;;;4509992;28;20521;-60
2022/01/17 10:09:22;;;;;;;4.03;1.85;;;;;;;;;;4508719;28;20537;-60
2022/01/17 10:11:32;;;;;;;5.13;2.10;;;;;;;;;;4533579;28;20041;-60
2022/01/17 10:13:45;;;;;;;4.30;1.90;;;;;;;;;;4508544;28;20041;-60
2022/01/17 10:16:05;;;;;;;4.93;2.33;;;;;;;;;;4542240;28;20072;-60
2022/01/17 10:18:29;;;;;;;4.38;1.92;;;;;;;;;;4507960;28;21135;-60
2022/01/17 10:20:46;;;;;;;3.97;1.90;;;;;;;;;;4540538;28;20592;-60
2022/01/17 10:23:17;;;;;;;4.90;2.30;;;;;;;;;;4507773;28;20044;-60
2022/01/17 10:28:11;;;;;;;5.18;2.05;;;;;;;;;;4509689;28;20061;-60
2022/01/17 10:35:15;;;;;;;3.53;2.05;;;;;;;;;;4508059;28;20041;-60
2022/01/17 10:37:27;;;;;;;3.50;1.90;;;;;;;;;;4508997;28;20026;-60
2022/01/17 10:39:55;;;;;;;4.22;2.10;;;;;;;;;;4508212;28;20034;-60
2022/01/17 10:42:22;;;;;;;4.28;2.00;;;;;;;;;;4508275;28;20133;-60
2022/01/17 10:44:37;;;;;;;4.72;2.15;;;;;;;;;;4513255;28;20122;-60
2022/01/17 10:46:48;;;;;;;4.38;2.67;;;;;;;;;;4507096;28;20432;-60
2022/01/17 10:48:59;;;;;;;4.90;2.50;;;;;;;;;;4507667;28;20045;-60
2022/01/17 10:51:11;;;;;;;7.43;4.53;;;;;;;;;;4509448;28;20034;-60
2022/01/17 10:53:22;;;;;;;4.20;2.63;;;;;;;;;;4509506;28;20034;-61
2022/01/17 10:55:34;;;;;;;3.77;2.17;;;;;;;;;;4539443;28;20028;-60
2022/01/17 10:57:48;;;;;;;3.65;2.47;;;;;;;;;;4509137;28;20769;-60
2022/01/17 10:59:58;;;;;;;3.20;2.05;;;;;;;;;;4541686;28;20043;-60
2022/01/17 11:02:09;;;;;;;3.93;2.10;;;;;;;;;;4515518;28;20044;-61
2022/01/17 11:04:33;;;;;;;4.33;2.13;;;;;;;;;;4506874;28;20042;-60
2022/01/17 11:06:47;;;;;;;3.95;2.10;;;;;;;;;;4507885;28;20601;-60
2022/01/17 11:09:05;;;;;;;4.88;2.10;;;;;;;;;;4540136;28;20151;-60
2022/01/17 11:11:21;;;;;;;3.88;2.28;;;;;;;;;;4541069;28;20033;-59
2022/01/17 11:13:33;;;;;;;4.05;2.22;;;;;;;;;;4507624;28;20049;-59
2022/01/17 11:15:46;;;;;;;;;;;;;;;;;;4508219;28;20038;-59
2022/01/17 11:17:58;;;;;;;4.03;2.38;;;;;;;;;;4504566;28;19913;-59
2022/01/17 11:20:09;;;;;;;3.88;1.75;;;;;;;;;;4505944;28;20274;-59
2022/01/17 11:22:20;;;;;;;3.87;2.20;;;;;;;;;;4507166;28;20460;-59
2022/01/17 11:24:30;;;;;;;5.27;2.10;;;;;;;;;;4539877;28;20290;-59
2022/01/17 11:26:41;;;;;;;3.73;2.13;;;;;;;;;;4507664;28;20132;-59
2022/01/17 11:28:54;;;;;;;3.58;2.30;;;;;;;;;;4507547;28;20041;-59
2022/01/17 11:31:12;;;;;;;4.45;2.40;;;;;;;;;;4506890;28;20140;-59
2022/01/17 11:33:23;;;;;;;3.58;1.88;;;;;;;;;;4515178;28;20037;-59
2022/01/17 11:35:37;;;;;;;4.80;2.17;;;;;;;;;;4504655;28;20038;-59
2022/01/17 11:37:50;;;;;;;3.45;1.98;;;;;;;;;;4506812;28;20594;-59
2022/01/17 11:40:00;;;;;;;3.13;1.95;;;;;;;;;;4506540;28;20034;-60
2022/01/17 11:43:04;;;;;;;3.90;2.00;;;;;;;;;;4540012;28;20044;-59
2022/01/17 11:45:23;;;;;;;4.00;1.85;;;;;;;;;;4507684;28;20057;-59
2022/01/17 11:48:02;;;;;;;4.20;2.10;;;;;;;;;;4509820;28;20037;-59
2022/01/17 11:50:32;;;;;;;3.50;1.88;;;;;;;;;;4508670;28;21035;-59
2022/01/17 11:52:43;;;;;;;3.67;2.13;;;;;;;;;;4510689;28;20034;-59
2022/01/17 11:54:54;;;;;;;3.00;1.80;;;;;;;;;;4508684;28;20613;-59
2022/01/17 11:57:06;;;;;;;4.18;1.90;;;;;;;;;;4508811;28;20042;-59
2022/01/17 11:59:22;;;;;;;;;;;;;;;;;;4513061;28;20030;-59
2022/01/17 12:01:32;;;;;;;4.65;2.33;;;;;;;;;;4510057;28;19976;-59
2022/01/17 12:03:56;;;;;;;3.17;1.90;;;;;;;;;;4510712;28;20045;-59
2022/01/17 12:06:25;;;;;;;3.45;1.80;;;;;;;;;;4509134;28;20156;-59
2022/01/17 12:08:35;;;;;;;2.15;1.67;;;;;;;;;;4510874;28;20043;-59
2022/01/17 12:11:07;;;;;;;2.87;1.77;;;;;;;;;;4510005;28;20044;-59
2022/01/17 12:13:19;;;;;;;2.90;1.83;;;;;;;;;;4511325;28;20116;-59
2022/01/17 12:16:05;;;;;;;3.30;2.00;;;;;;;;;;4511105;28;20041;-59
2022/01/17 12:18:31;;;;;;;2.75;1.67;;;;;;;;;;4510429;28;20087;-59
2022/01/17 12:20:47;;;;;;;2.78;1.60;;;;;;;;;;4510388;28;20034;-59
2022/01/17 12:22:58;;;;;;;4.05;1.70;;;;;;;;;;4540378;28;20045;-59
2022/01/17 12:25:30;;;;;;;3.15;1.77;;;;;;;;;;4542059;28;20033;-59
2022/01/17 12:27:41;;;;;;;4.30;1.85;;;;;;;;;;4511423;28;20038;-59
2022/01/17 12:30:18;;;;;;;3.60;1.67;;;;;;;;;;4511088;28;20772;-59
2022/01/17 12:32:32;;;;;;;3.78;1.85;;;;;;;;;;4507464;28;20038;-59
2022/01/17 12:34:43;;;;;;;3.75;1.67;;;;;;;;;;4515071;28;20033;-59
2022/01/17 12:36:58;;;;;;;3.10;1.55;;;;;;;;;;4540304;28;20591;-59
2022/01/17 12:39:10;;;;;;;5.20;2.20;;;;;;;;;;4541453;28;20033;-60
2022/01/17 12:41:31;;;;;;;3.70;1.88;;;;;;;;;;4507145;28;20030;-59
2022/01/17 12:43:41;;;;;;;3.83;1.90;;;;;;;;;;4534239;28;20037;-59
2022/01/17 12:46:00;;;;;;;4.00;2.10;;;;;;;;;;4508839;28;20029;-59
2022/01/17 12:48:16;;;;;;;4.30;2.20;;;;;;;;;;4510771;28;20647;-60
2022/01/17 12:50:28;;;;;;;5.05;2.28;;;;;;;;;;4511482;28;20042;-59
2022/01/17 12:52:38;;;;;;;4.40;2.10;;;;;;;;;;4540534;28;20064;-60
2022/01/17 12:54:50;;;;;;;4.27;1.97;;;;;;;;;;4509961;28;20548;-59
2022/01/17 12:57:01;;;;;;;4.20;1.98;;;;;;;;;;4541567;28;20599;-59
2022/01/17 12:59:12;;;;;;;6.38;2.45;;;;;;;;;;4507246;28;20026;-59
2022/01/17 13:01:24;;;;;;;4.88;2.10;;;;;;;;;;4509179;28;20034;-59
2022/01/17 13:03:36;;;;;;;6.68;2.33;;;;;;;;;;4507315;28;20050;-59
2022/01/17 13:05:47;;;;;;;6.13;2.30;;;;;;;;;;4494862;28;21446;-59
2022/01/17 13:08:02;;;;;;;7.17;2.70;;;;;;;;;;4497721;28;20137;-59
2022/01/17 13:10:13;;;;;;;6.95;2.80;;;;;;;;;;4509537;28;20635;-59
2022/01/17 13:12:23;;;;;;;7.20;2.70;;;;;;;;;;4508988;28;28502;-59
2022/01/17 13:14:34;;;;;;;4.97;2.53;;;;;;;;;;4510377;28;20563;-59
2022/01/17 13:16:47;;;;;;;5.13;2.47;;;;;;;;;;4494881;28;20038;-59
2022/01/17 13:18:58;;;;;;;5.70;2.35;;;;;;;;;;4509378;28;20041;-59
2022/01/17 13:21:09;;;;;;;;;;;;;;;;;;4509634;28;20129;-59
2022/01/17 13:23:31;;;;;;;4.43;2.17;;;;;;;;;;4507641;28;19925;-59
2022/01/17 13:25:41;;;;;;;6.35;2.28;;;;;;;;;;4524743;28;20651;-59
2022/01/17 13:28:01;;;;;;;6.23;2.27;;;;;;;;;;4510216;28;20442;-59
2022/01/17 13:30:12;;;;;;;5.07;2.20;;;;;;;;;;4508107;28;20038;-59
2022/01/17 13:32:32;;;;;;;6.18;2.70;;;;;;;;;;4509503;28;20587;-59
2022/01/17 13:34:42;;;;;;;7.10;2.60;;;;;;;;;;4508594;28;20046;-59
2022/01/17 13:36:55;;;;;;;7.73;2.77;;;;;;;;;;4514253;28;20030;-59
2022/01/17 13:39:09;;;;;;;7.53;2.92;;;;;;;;;;4542136;28;20033;-59
2022/01/17 13:41:27;;;;;;;5.88;2.92;;;;;;;;;;4533440;28;20037;-59